Time;durP1;ratioP1;P1;durP2;ratioP2;P2;SDS_P1;SDS_P2;PMS_P1;PMS_P2;Temp;Humidity;BMP_temperature;BMP_pressure;BME280_temperature;BME280_humidity;BME280_pressure;Samples;Min_cycle;Max_cycle;Signal;HPM_P1;HPM_P2
2021/09/17 04:01:47;;;;;;;81.27;64.13;;;13.70;99.70;;;;;;5069261;28;20257;-63
2021/09/17 04:04:14;;;;;;;71.90;54.80;;;13.80;99.70;;;;;;5068746;28;20204;-63
2021/09/17 04:06:42;;;;;;;59.80;22.37;;;13.90;99.70;;;;;;5069071;28;20438;-62
2021/09/17 04:09:09;;;;;;;59.60;19.37;;;13.80;99.70;;;;;;5068404;28;20489;-64
2021/09/17 04:11:36;;;;;;;76.10;57.40;;;13.90;99.70;;;;;;5068833;28;20467;-63
2021/09/17 04:14:02;;;;;;;78.90;57.80;;;13.90;99.70;;;;;;5067200;28;20453;-64
2021/09/17 04:16:29;;;;;;;59.37;19.83;;;13.90;99.70;;;;;;5068903;28;20439;-63
2021/09/17 04:18:57;;;;;;;81.10;62.40;;;13.90;99.70;;;;;;5068529;28;20450;-63
2021/09/17 04:21:24;;;;;;;69.80;46.87;;;14.00;99.70;;;;;;5068735;28;20485;-63
2021/09/17 04:23:50;;;;;;;88.47;77.57;;;13.90;99.70;;;;;;5068533;28;20989;-62
2021/09/17 04:26:17;;;;;;;62.90;27.57;;;14.00;99.70;;;;;;5068658;28;20449;-61
2021/09/17 04:28:44;;;;;;;59.73;25.50;;;13.90;99.70;;;;;;5069352;28;20438;-63
2021/09/17 04:31:10;;;;;;;83.73;70.57;;;13.90;99.70;;;;;;5072272;28;20556;-64
2021/09/17 04:33:37;;;;;;;76.77;48.73;;;13.90;99.70;;;;;;5072538;28;20887;-65
2021/09/17 04:36:05;;;;;;;60.23;24.80;;;14.00;99.70;;;;;;5072210;28;20449;-64
2021/09/17 04:38:32;;;;;;;58.20;23.67;;;13.90;99.70;;;;;;5071884;28;20930;-58
2021/09/17 04:40:59;;;;;;;78.03;59.43;;;13.80;99.70;;;;;;5072017;28;20462;-63
2021/09/17 04:43:27;;;;;;;74.90;57.90;;;13.90;99.70;;;;;;5072403;28;20504;-64
2021/09/17 04:45:54;;;;;;;59.30;20.80;;;14.00;99.70;;;;;;5072101;28;20866;-64
2021/09/17 04:48:21;;;;;;;76.60;60.10;;;14.00;99.70;;;;;;5072273;28;20447;-64
2021/09/17 04:50:48;;;;;;;75.70;59.17;;;13.90;99.70;;;;;;5073098;28;20501;-63
2021/09/17 04:53:16;;;;;;;71.70;46.67;;;13.90;99.70;;;;;;5072260;28;20814;-63
2021/09/17 04:55:42;;;;;;;77.47;55.90;;;14.00;99.70;;;;;;5071608;28;20438;-64
2021/09/17 04:58:10;;;;;;;71.20;48.20;;;14.00;99.70;;;;;;5072166;28;20442;-64
2021/09/17 05:00:37;;;;;;;74.43;54.47;;;13.90;99.70;;;;;;5071188;28;20466;-65
2021/09/17 05:03:04;;;;;;;76.17;56.30;;;13.80;99.70;;;;;;5072042;28;20446;-63
2021/09/17 05:05:31;;;;;;;81.87;62.53;;;13.80;99.70;;;;;;5071674;28;20447;-63
2021/09/17 05:07:58;;;;;;;62.87;22.20;;;13.70;99.70;;;;;;5071904;28;20451;-64
2021/09/17 05:10:26;;;;;;;79.37;64.37;;;13.70;99.70;;;;;;5071168;28;20509;-66
2021/09/17 05:12:53;;;;;;;77.00;57.50;;;13.60;99.70;;;;;;5070901;28;20446;-65
2021/09/17 05:15:20;;;;;;;74.33;47.67;;;13.60;99.70;;;;;;5071323;28;20474;-64
2021/09/17 05:17:47;;;;;;;79.40;60.43;;;13.50;99.70;;;;;;5071805;28;20451;-64
2021/09/17 05:20:14;;;;;;;84.97;57.13;;;13.50;99.70;;;;;;5070977;28;20458;-64
2021/09/17 05:22:41;;;;;;;82.90;50.13;;;13.50;99.70;;;;;;5071608;28;20446;-65
2021/09/17 05:25:09;;;;;;;84.60;53.57;;;13.60;99.70;;;;;;5071242;28;20438;-64
2021/09/17 05:27:37;;;;;;;77.67;54.13;;;13.60;99.70;;;;;;5071505;28;20949;-65
2021/09/17 05:30:05;;;;;;;77.00;46.97;;;13.70;99.70;;;;;;5070709;28;20487;-64
2021/09/17 05:32:31;;;;;;;73.33;44.17;;;13.60;99.70;;;;;;5071358;28;20447;-65
2021/09/17 05:34:58;;;;;;;78.63;50.20;;;13.70;99.70;;;;;;5071184;28;20445;-64
2021/09/17 05:37:25;;;;;;;76.17;43.37;;;13.70;99.70;;;;;;5068883;28;20442;-63
2021/09/17 05:39:52;;;;;;;63.27;21.27;;;13.80;99.70;;;;;;5069156;28;20442;-63
2021/09/17 05:42:20;;;;;;;75.57;44.30;;;13.80;99.70;;;;;;5070971;28;20516;-63
2021/09/17 05:44:48;;;;;;;73.40;46.93;;;13.90;99.70;;;;;;5071697;28;20939;-64
2021/09/17 05:47:15;;;;;;;65.33;22.07;;;13.80;99.70;;;;;;5070952;28;20500;-63
2021/09/17 05:49:42;;;;;;;72.50;42.10;;;13.90;99.70;;;;;;5071646;28;20482;-65
2021/09/17 05:52:09;;;;;;;79.90;47.83;;;13.90;99.70;;;;;;5071308;28;20521;-64
2021/09/17 05:54:37;;;;;;;72.50;43.63;;;13.90;99.70;;;;;;5071700;28;20735;-63
2021/09/17 05:57:04;;;;;;;73.47;46.67;;;14.00;99.70;;;;;;5071342;28;20458;-64
2021/09/17 05:59:31;;;;;;;70.97;43.23;;;13.90;99.70;;;;;;5071301;28;20455;-65
2021/09/17 06:01:59;;;;;;;77.53;54.00;;;14.00;99.70;;;;;;5071166;28;20469;-63
2021/09/17 06:04:25;;;;;;;87.37;57.33;;;14.00;99.70;;;;;;5071069;28;20446;-63
2021/09/17 06:06:52;;;;;;;85.40;67.13;;;14.00;99.70;;;;;;5070964;28;20443;-62
2021/09/17 06:09:19;;;;;;;76.90;51.63;;;14.00;99.70;;;;;;5070840;28;20459;-62
2021/09/17 06:11:46;;;;;;;77.73;51.20;;;14.10;99.70;;;;;;5070952;28;20455;-64
2021/09/17 06:14:12;;;;;;;76.67;50.87;;;14.00;99.70;;;;;;5070254;28;20447;-64
2021/09/17 06:16:39;;;;;;;79.70;56.07;;;14.10;99.70;;;;;;5071071;28;20517;-65
2021/09/17 06:19:07;;;;;;;78.27;50.67;;;14.10;99.70;;;;;;5070722;28;20934;-64
2021/09/17 06:21:37;;;;;;;77.93;52.60;;;14.20;99.70;;;;;;5071021;28;20663;-64
2021/09/17 06:24:04;;;;;;;72.37;49.87;;;14.30;99.70;;;;;;5070981;28;20446;-64
2021/09/17 06:26:31;;;;;;;80.00;57.97;;;14.30;99.70;;;;;;5071185;28;20458;-65
2021/09/17 06:28:59;;;;;;;77.77;62.23;;;14.30;99.70;;;;;;5069663;28;20439;-65
2021/09/17 06:31:26;;;;;;;85.03;76.30;;;14.30;99.70;;;;;;5070649;28;20486;-64
2021/09/17 06:33:53;;;;;;;85.37;65.50;;;14.30;99.70;;;;;;5070624;28;20447;-65
2021/09/17 06:36:21;;;;;;;79.20;61.47;;;14.30;99.70;;;;;;5070755;28;20443;-63
2021/09/17 06:38:48;;;;;;;85.53;77.03;;;14.30;99.70;;;;;;5070433;28;20937;-64
2021/09/17 06:41:14;;;;;;;83.53;66.63;;;14.30;99.70;;;;;;5068119;28;20478;-66
2021/09/17 06:43:41;;;;;;;96.57;76.77;;;14.40;99.70;;;;;;5070570;28;20442;-65
2021/09/17 06:46:08;;;;;;;81.13;72.07;;;14.50;99.70;;;;;;5070390;28;20853;-64
2021/09/17 06:48:35;;;;;;;87.03;82.63;;;14.50;99.70;;;;;;5070251;28;20443;-66
2021/09/17 06:51:02;;;;;;;94.97;90.40;;;14.70;99.70;;;;;;5069522;28;20482;-64
2021/09/17 06:53:30;;;;;;;85.30;70.33;;;14.70;99.70;;;;;;5069198;28;20610;-64
2021/09/17 06:55:57;;;;;;;83.17;74.83;;;14.70;99.70;;;;;;5068532;28;20446;-64
2021/09/17 06:58:28;;;;;;;90.50;81.43;;;14.70;99.70;;;;;;5068258;28;20941;-64
2021/09/17 07:00:55;;;;;;;82.63;77.27;;;14.70;99.70;;;;;;5068493;28;20490;-65
2021/09/17 07:03:22;;;;;;;93.30;84.20;;;14.60;99.70;;;;;;5068418;28;20443;-66
2021/09/17 07:05:49;;;;;;;99.13;86.77;;;14.80;99.70;;;;;;5068384;28;20450;-65
2021/09/17 07:08:18;;;;;;;90.23;85.47;;;14.80;99.70;;;;;;5068046;28;20952;-66
2021/09/17 07:10:47;;;;;;;93.60;89.10;;;14.80;99.70;;;;;;5069584;28;20529;-64
2021/09/17 07:13:15;;;;;;;85.43;77.60;;;14.70;99.70;;;;;;5068579;28;21126;-65
2021/09/17 07:15:42;;;;;;;90.47;82.97;;;14.70;99.70;;;;;;5069870;28;20454;-64
2021/09/17 07:18:09;;;;;;;81.17;72.07;;;14.80;99.70;;;;;;5068262;28;20439;-64
2021/09/17 07:20:38;;;;;;;78.30;62.43;;;14.80;99.70;;;;;;5068667;28;20467;-64
2021/09/17 07:23:05;;;;;;;86.27;79.80;;;14.90;99.70;;;;;;5066505;28;20451;-65
2021/09/17 07:25:33;;;;;;;90.67;82.90;;;14.90;99.70;;;;;;5067575;28;20451;-64
2021/09/17 07:28:01;;;;;;;86.47;79.23;;;15.00;99.70;;;;;;5069767;28;20454;-65
2021/09/17 07:30:28;;;;;;;87.67;75.93;;;15.00;99.70;;;;;;5069327;28;20490;-62
2021/09/17 07:32:55;;;;;;;95.80;80.70;;;15.10;99.70;;;;;;5069796;28;20446;-65
2021/09/17 07:35:22;;;;;;;92.37;87.93;;;15.20;99.70;;;;;;5069578;28;20442;-65
2021/09/17 07:37:49;;;;;;;88.33;84.07;;;15.20;99.70;;;;;;5069773;28;20450;-65
2021/09/17 07:40:16;;;;;;;112.43;107.03;;;15.30;99.70;;;;;;5069327;28;20466;-64
2021/09/17 07:42:44;;;;;;;112.60;107.20;;;15.30;99.70;;;;;;5069794;28;20442;-65
2021/09/17 07:45:14;;;;;;;128.60;122.43;;;15.30;99.70;;;;;;5069387;28;20443;-64
2021/09/17 07:47:42;;;;;;;117.93;112.27;;;15.30;99.70;;;;;;5069657;28;20954;-65
2021/09/17 07:50:11;;;;;;;114.80;109.30;;;15.40;99.70;;;;;;5069086;28;21004;-64
2021/09/17 07:52:38;;;;;;;124.53;118.53;;;15.50;99.70;;;;;;5069401;28;20438;-64
2021/09/17 07:55:06;;;;;;;133.80;127.37;;;15.40;99.70;;;;;;5069567;28;20450;-64
2021/09/17 07:57:33;;;;;;;127.33;121.23;;;15.50;99.70;;;;;;5069113;28;20450;-64
2021/09/17 08:00:00;;;;;;;123.43;117.53;;;15.50;99.70;;;;;;5069362;28;20822;-64
2021/09/17 08:02:28;;;;;;;129.53;123.33;;;15.40;99.70;;;;;;5070001;28;20445;-64
2021/09/17 08:04:55;;;;;;;132.30;125.97;;;15.50;99.70;;;;;;5073527;28;20438;-64
2021/09/17 08:07:21;;;;;;;76.73;49.73;;;15.60;99.70;;;;;;5073286;28;20533;-64
2021/09/17 08:09:48;;;;;;;98.87;94.10;;;15.60;99.70;;;;;;5073203;28;20445;-65
2021/09/17 08:12:15;;;;;;;125.43;119.40;;;15.60;99.70;;;;;;5073134;28;20474;-64
2021/09/17 08:14:41;;;;;;;110.50;105.20;;;15.70;99.70;;;;;;5073072;28;20860;-64
2021/09/17 08:17:08;;;;;;;106.87;101.73;;;15.80;99.70;;;;;;5072806;28;20449;-65
2021/09/17 08:19:36;;;;;;;128.73;122.57;;;15.90;99.70;;;;;;5072622;28;20445;-64
2021/09/17 08:22:03;;;;;;;122.90;117.00;;;16.00;99.70;;;;;;5073346;28;20463;-64
2021/09/17 08:24:30;;;;;;;122.07;116.20;;;15.90;99.70;;;;;;5072639;28;20577;-64
2021/09/17 08:26:57;;;;;;;77.30;65.93;;;16.10;99.70;;;;;;5073223;28;20446;-64
2021/09/17 08:29:24;;;;;;;70.30;47.97;;;16.10;99.70;;;;;;5072525;28;20904;-66
2021/09/17 08:31:51;;;;;;;66.20;41.10;;;16.10;99.70;;;;;;5073132;28;20478;-65
2021/09/17 08:34:18;;;;;;;71.63;54.43;;;16.20;99.70;;;;;;5072817;28;20443;-64
2021/09/17 08:36:46;;;;;;;67.37;37.50;;;16.40;99.70;;;;;;5073102;28;20799;-65
2021/09/17 08:39:14;;;;;;;59.47;26.90;;;16.40;99.70;;;;;;5072199;28;20446;-64
2021/09/17 08:41:46;;;;;;;61.43;21.90;;;16.60;99.70;;;;;;5072866;28;20469;-64
2021/09/17 08:44:13;;;;;;;63.77;28.67;;;16.60;99.70;;;;;;5072829;28;20447;-65
2021/09/17 08:46:41;;;;;;;67.47;43.40;;;16.60;99.70;;;;;;5072638;28;20833;-64
2021/09/17 08:49:08;;;;;;;79.23;66.67;;;16.60;99.70;;;;;;5072321;28;20477;-65
2021/09/17 08:51:35;;;;;;;62.57;35.10;;;16.60;99.70;;;;;;5072119;28;20482;-64
2021/09/17 08:54:04;;;;;;;68.67;46.37;;;16.50;99.70;;;;;;5072683;28;20449;-64
2021/09/17 08:56:32;;;;;;;63.13;18.80;;;16.70;99.70;;;;;;5072479;28;20442;-65
2021/09/17 08:58:59;;;;;;;55.60;15.50;;;16.80;99.70;;;;;;5072311;28;21023;-64
2021/09/17 09:01:27;;;;;;;61.00;30.73;;;16.90;99.70;;;;;;5072301;28;20853;-65
2021/09/17 09:03:59;;;;;;;75.00;62.17;;;16.90;99.70;;;;;;5072391;28;20438;-64
2021/09/17 09:06:26;;;;;;;121.37;115.53;;;17.00;99.70;;;;;;5072242;28;20482;-65
2021/09/17 09:08:55;;;;;;;73.77;58.03;;;17.00;99.70;;;;;;5072000;28;20945;-65
2021/09/17 09:11:25;;;;;;;120.00;114.23;;;16.90;99.70;;;;;;5072578;28;20496;-65
2021/09/17 09:14:05;;;;;;;113.53;108.07;;;17.00;99.70;;;;;;5071151;28;20840;-64
2021/09/17 09:16:33;;;;;;;104.67;99.63;;;17.10;99.70;;;;;;5071864;28;20929;-60
2021/09/17 09:19:20;;;;;;;81.03;67.40;;;17.00;99.70;;;;;;5071672;28;20442;-65
2021/09/17 09:21:47;;;;;;;64.20;30.90;;;17.00;99.70;;;;;;5072140;28;20455;-64
2021/09/17 09:24:16;;;;;;;53.40;14.17;;;17.10;99.70;;;;;;5071691;28;20457;-65
2021/09/17 09:26:45;;;;;;;56.57;18.10;;;17.20;99.70;;;;;;5072314;28;20462;-65
2021/09/17 09:29:30;;;;;;;54.30;15.60;;;17.20;99.70;;;;;;5071380;28;20455;-64
2021/09/17 09:31:57;;;;;;;83.50;79.47;;;17.20;99.70;;;;;;5071947;28;20903;-65
2021/09/17 09:34:44;;;;;;;60.20;20.70;;;17.30;99.70;;;;;;5071679;28;20947;-64
2021/09/17 09:37:12;;;;;;;84.37;80.30;;;17.30;99.70;;;;;;5072086;28;20446;-64
2021/09/17 09:39:53;;;;;;;57.30;16.43;;;17.20;99.70;;;;;;5071399;28;20451;-64
2021/09/17 09:42:30;;;;;;;58.30;18.33;;;17.20;99.70;;;;;;5070484;28;20447;-64
2021/09/17 09:45:11;;;;;;;71.07;47.37;;;17.30;99.70;;;;;;5069700;28;20446;-64
2021/09/17 09:47:40;;;;;;;65.37;35.63;;;17.50;99.70;;;;;;5069955;28;20508;-57
2021/09/17 09:50:09;;;;;;;66.67;42.40;;;17.60;99.70;;;;;;5069092;28;20466;-64
2021/09/17 09:52:35;;;;;;;59.23;26.53;;;17.60;99.70;;;;;;5069532;28;20505;-64
2021/09/17 09:55:02;;;;;;;67.37;43.43;;;17.70;99.70;;;;;;5070131;28;20458;-64
2021/09/17 09:57:31;;;;;;;64.70;37.07;;;17.70;99.70;;;;;;5070657;28;20431;-64
2021/09/17 10:00:02;;;;;;;60.53;24.73;;;17.80;99.70;;;;;;5069376;28;20838;-65
2021/09/17 10:02:30;;;;;;;61.83;27.83;;;17.90;99.70;;;;;;5071386;28;20906;-64
2021/09/17 10:04:58;;;;;;;63.33;33.30;;;17.90;99.70;;;;;;5071544;28;20453;-64
2021/09/17 10:07:27;;;;;;;70.13;48.13;;;17.80;99.70;;;;;;5071013;28;20508;-64
2021/09/17 10:09:54;;;;;;;67.53;37.80;;;18.00;99.70;;;;;;5071038;28;20522;-64
2021/09/17 10:12:21;;;;;;;62.50;29.67;;;18.00;99.70;;;;;;5070666;28;20478;-65
2021/09/17 10:14:49;;;;;;;63.97;40.03;;;18.00;99.70;;;;;;5071137;28;20454;-64
2021/09/17 10:17:20;;;;;;;63.83;34.47;;;18.10;99.70;;;;;;5070177;28;20443;-65
2021/09/17 10:19:48;;;;;;;59.10;20.60;;;18.20;99.70;;;;;;5070810;28;20447;-65
2021/09/17 10:22:28;;;;;;;62.20;23.23;;;18.20;99.70;;;;;;5071284;28;20655;-64
2021/09/17 10:25:14;;;;;;;59.47;23.63;;;18.40;99.70;;;;;;5070769;28;20448;-65
2021/09/17 10:27:43;;;;;;;57.77;23.90;;;18.40;99.70;;;;;;5070378;28;20439;-65
2021/09/17 10:30:13;;;;;;;57.40;22.33;;;18.50;99.70;;;;;;5070229;28;20466;-65
2021/09/17 10:32:46;;;;;;;56.33;17.23;;;18.50;99.70;;;;;;5071055;28;20486;-65
2021/09/17 10:35:16;;;;;;;58.07;18.87;;;18.60;99.70;;;;;;5070400;28;20451;-65
2021/09/17 10:38:00;;;;;;;58.27;17.17;;;18.60;99.70;;;;;;5071002;28;20447;-64
2021/09/17 10:40:41;;;;;;;57.03;16.53;;;18.60;99.70;;;;;;5069840;28;20472;-64
2021/09/17 10:43:18;;;;;;;55.83;17.70;;;18.60;99.70;;;;;;5070956;28;20443;-65
2021/09/17 10:45:47;;;;;;;59.73;21.00;;;18.60;99.70;;;;;;5070308;28;20442;-64
2021/09/17 10:48:16;;;;;;;52.00;14.83;;;18.60;99.70;;;;;;5071218;28;20447;-64
2021/09/17 10:50:52;;;;;;;53.83;13.57;;;18.70;99.70;;;;;;5070023;28;20474;-65
2021/09/17 10:54:02;;;;;;;49.93;13.43;;;18.70;99.70;;;;;;5070939;28;20462;-65
2021/09/17 10:56:45;;;;;;;51.37;12.50;;;18.70;99.70;;;;;;5070246;28;20442;-65
2021/09/17 10:59:21;;;;;;;55.33;14.43;;;18.80;99.70;;;;;;5057121;28;20829;-65
2021/09/17 11:01:54;;;;;;;50.67;14.27;;;18.90;99.70;;;;;;5070959;28;20466;-64
2021/09/17 11:04:24;;;;;;;50.67;11.70;;;18.90;99.70;;;;;;5070577;28;20627;-65
2021/09/17 11:06:51;;;;;;;45.40;11.43;;;18.90;99.70;;;;;;5070081;28;20533;-64
2021/09/17 11:09:40;;;;;;;48.50;12.90;;;18.80;99.70;;;;;;5069910;28;20942;-64
2021/09/17 11:12:19;;;;;;;48.07;13.13;;;18.80;99.70;;;;;;5069627;28;20479;-65
2021/09/17 11:15:08;;;;;;;48.60;13.23;;;18.80;99.70;;;;;;5062013;28;20451;-66
2021/09/17 11:17:39;;;;;;;46.70;14.10;;;18.90;99.70;;;;;;5066014;28;20538;-64
2021/09/17 11:20:07;;;;;;;47.87;12.77;;;18.80;99.70;;;;;;5069936;28;20439;-64
2021/09/17 11:22:57;;;;;;;50.87;12.97;;;18.80;99.70;;;;;;5069659;28;20439;-65
2021/09/17 11:25:28;;;;;;;47.57;13.37;;;18.80;99.70;;;;;;5069617;28;20441;-65
2021/09/17 11:27:55;;;;;;;45.23;12.23;;;18.80;99.70;;;;;;5069518;28;20440;-66
2021/09/17 11:30:23;;;;;;;46.23;11.90;;;18.70;99.70;;;;;;5069273;28;20700;-64
2021/09/17 11:32:52;;;;;;;46.10;13.37;;;18.70;99.70;;;;;;5067436;28;20478;-64
2021/09/17 11:35:19;;;;;;;47.87;13.87;;;18.60;99.70;;;;;;5069535;28;20451;-65
2021/09/17 11:37:54;;;;;;;47.30;12.50;;;18.60;99.70;;;;;;5068831;28;20445;-64
2021/09/17 11:40:22;;;;;;;47.00;11.90;;;18.60;99.70;;;;;;5069160;28;20840;-63
2021/09/17 11:42:49;;;;;;;49.70;14.30;;;18.40;99.70;;;;;;5069844;28;20450;-64
2021/09/17 11:45:17;;;;;;;47.00;13.80;;;18.20;99.70;;;;;;5069151;28;20466;-64
2021/09/17 11:47:48;;;;;;;44.83;11.97;;;18.30;99.70;;;;;;5069328;28;20467;-64
2021/09/17 11:50:17;;;;;;;44.03;11.53;;;18.30;99.70;;;;;;5068965;28;20850;-64
2021/09/17 11:52:46;;;;;;;46.93;16.03;;;18.40;99.70;;;;;;5069568;28;20513;-63
2021/09/17 11:55:15;;;;;;;46.20;13.03;;;18.40;99.70;;;;;;5069395;28;20449;-64
2021/09/17 11:57:44;;;;;;;47.10;13.20;;;18.40;99.70;;;;;;5069444;28;20443;-65
2021/09/17 12:00:12;;;;;;;47.13;14.93;;;18.40;99.70;;;;;;5068909;28;20463;-65
2021/09/17 12:02:39;;;;;;;45.30;12.30;;;18.50;99.70;;;;;;5069223;28;20439;-66
2021/09/17 12:05:08;;;;;;;47.43;13.60;;;18.50;99.70;;;;;;5069464;28;20439;-65
2021/09/17 12:07:37;;;;;;;47.10;12.90;;;18.50;99.70;;;;;;5069082;28;20443;-65
2021/09/17 12:10:11;;;;;;;48.37;14.20;;;18.50;99.70;;;;;;5068782;28;20453;-65
2021/09/17 12:12:41;;;;;;;45.70;14.20;;;18.40;99.70;;;;;;5068486;28;20880;-65
2021/09/17 12:15:10;;;;;;;46.90;15.00;;;18.50;99.70;;;;;;5069675;28;20438;-65
2021/09/17 12:17:52;;;;;;;47.00;12.70;;;18.50;99.70;;;;;;5068368;28;20445;-64
2021/09/17 12:20:19;;;;;;;46.43;12.97;;;18.50;99.70;;;;;;5069185;28;20466;-64
2021/09/17 12:22:56;;;;;;;49.20;15.17;;;18.50;99.70;;;;;;5068269;28;20447;-64
2021/09/17 12:25:29;;;;;;;46.47;15.50;;;18.50;99.70;;;;;;5069072;28;20458;-64
2021/09/17 12:27:57;;;;;;;47.10;12.43;;;18.50;99.70;;;;;;5068110;28;20446;-65
2021/09/17 12:30:27;;;;;;;42.93;10.67;;;18.60;99.70;;;;;;5068273;28;20490;-65
2021/09/17 12:33:09;;;;;;;44.80;11.47;;;18.70;99.70;;;;;;5069329;28;20478;-64
2021/09/17 12:35:37;;;;;;;44.47;13.23;;;18.70;99.70;;;;;;5068994;28;20443;-62
2021/09/17 12:38:08;;;;;;;44.50;13.50;;;18.80;99.70;;;;;;5069217;28;20443;-64
2021/09/17 12:40:38;;;;;;;43.70;13.20;;;18.80;99.70;;;;;;5068571;28;20583;-64
2021/09/17 12:43:07;;;;;;;45.10;12.97;;;18.90;99.70;;;;;;5068997;28;20652;-63
2021/09/17 12:45:34;;;;;;;43.47;11.73;;;19.00;99.70;;;;;;5068512;28;20451;-64
2021/09/17 12:48:04;;;;;;;46.10;13.60;;;19.00;99.70;;;;;;5068874;28;20455;-65
2021/09/17 12:50:33;;;;;;;45.20;14.57;;;19.00;99.70;;;;;;5070404;28;21055;-65
2021/09/17 12:52:59;;;;;;;42.73;12.40;;;19.00;99.70;;;;;;5072315;28;20568;-65
2021/09/17 12:55:31;;;;;;;44.10;14.00;;;19.00;99.70;;;;;;5071973;28;20450;-65
2021/09/17 12:58:02;;;;;;;51.83;14.20;;;19.00;99.70;;;;;;5072231;28;20941;-63
2021/09/17 13:00:30;;;;;;;60.50;16.17;;;18.90;99.70;;;;;;5072296;28;20819;-64
2021/09/17 13:02:57;;;;;;;46.07;14.07;;;18.90;99.70;;;;;;5072026;28;20932;-62
2021/09/17 13:05:24;;;;;;;49.87;15.47;;;19.00;99.70;;;;;;5071580;28;20451;-65
2021/09/17 13:07:51;;;;;;;46.07;13.93;;;19.00;99.70;;;;;;5070836;28;20461;-65
2021/09/17 13:10:17;;;;;;;46.20;13.30;;;18.90;99.70;;;;;;5072012;28;20466;-65
2021/09/17 13:12:45;;;;;;;44.53;14.27;;;19.00;99.70;;;;;;5071907;28;20510;-66
2021/09/17 13:15:12;;;;;;;46.67;13.77;;;19.00;99.70;;;;;;5072298;28;20447;-65
2021/09/17 13:17:39;;;;;;;46.90;13.87;;;18.90;99.70;;;;;;5071259;28;20449;-65
2021/09/17 13:20:09;;;;;;;41.80;11.23;;;18.90;99.70;;;;;;5072162;28;20446;-65
2021/09/17 13:22:35;;;;;;;43.77;12.90;;;18.90;99.70;;;;;;5072287;28;20435;-65
2021/09/17 13:25:03;;;;;;;42.83;11.83;;;18.90;99.70;;;;;;5071111;28;20443;-65
2021/09/17 13:27:30;;;;;;;43.87;11.43;;;18.90;99.70;;;;;;5071385;28;20458;-65
2021/09/17 13:29:59;;;;;;;43.73;11.83;;;18.90;99.70;;;;;;5071068;28;20439;-59
2021/09/17 13:32:27;;;;;;;45.43;14.13;;;18.90;99.70;;;;;;5071155;28;20471;-65
2021/09/17 13:34:54;;;;;;;44.47;13.43;;;18.90;99.70;;;;;;5070786;28;20497;-65
2021/09/17 13:37:21;;;;;;;44.73;12.43;;;18.80;99.70;;;;;;5071640;28;20529;-64
2021/09/17 13:39:48;;;;;;;42.40;12.37;;;18.70;99.70;;;;;;5070750;28;20470;-64
2021/09/17 13:42:15;;;;;;;43.10;13.37;;;18.70;99.70;;;;;;5071664;28;20443;-62
2021/09/17 13:44:42;;;;;;;42.60;10.77;;;18.70;99.70;;;;;;5071835;28;20447;-65
2021/09/17 13:47:10;;;;;;;42.00;11.90;;;18.60;99.70;;;;;;5070247;28;20960;-65
2021/09/17 13:49:37;;;;;;;43.37;11.57;;;18.70;99.70;;;;;;5071410;28;20763;-65
2021/09/17 13:52:05;;;;;;;43.30;11.63;;;18.50;99.70;;;;;;5071226;28;20513;-64
2021/09/17 13:54:32;;;;;;;41.37;10.00;;;18.50;99.70;;;;;;5071710;28;20873;-65
2021/09/17 13:56:59;;;;;;;42.27;12.07;;;18.40;99.70;;;;;;5071425;28;20453;-64
2021/09/17 13:59:25;;;;;;;43.13;10.67;;;18.40;99.70;;;;;;5071291;28;20518;-64
2021/09/17 14:01:53;;;;;;;41.67;10.17;;;18.60;99.70;;;;;;5070920;28;20462;-64
2021/09/17 14:04:21;;;;;;;41.33;10.70;;;18.60;99.70;;;;;;5071567;28;20442;-64
2021/09/17 14:06:48;;;;;;;43.67;12.00;;;18.70;99.70;;;;;;5071295;28;20450;-65
2021/09/17 14:09:15;;;;;;;43.50;13.47;;;18.70;99.70;;;;;;5071175;28;20479;-64
2021/09/17 14:11:42;;;;;;;45.63;18.27;;;18.70;99.70;;;;;;5071143;28;21014;-65
2021/09/17 14:14:09;;;;;;;46.60;19.47;;;18.70;99.70;;;;;;5071242;28;20477;-64
2021/09/17 14:16:36;;;;;;;48.27;21.70;;;18.50;99.70;;;;;;5070574;28;20446;-65
2021/09/17 14:19:03;;;;;;;42.90;13.47;;;18.50;99.70;;;;;;5070812;28;20442;-65
2021/09/17 14:21:31;;;;;;;45.93;13.47;;;18.50;99.70;;;;;;5071211;28;20807;-64
2021/09/17 14:23:58;;;;;;;47.17;17.67;;;18.60;99.70;;;;;;5070978;28;20445;-65
2021/09/17 14:26:25;;;;;;;45.87;19.00;;;18.60;99.70;;;;;;5070740;28;20439;-64
2021/09/17 14:28:51;;;;;;;44.93;15.57;;;18.70;99.70;;;;;;5070363;28;20454;-64
2021/09/17 14:31:18;;;;;;;46.50;17.20;;;18.70;99.70;;;;;;5070944;28;20470;-65
2021/09/17 14:33:46;;;;;;;49.00;22.20;;;18.70;99.70;;;;;;5070572;28;21027;-65
2021/09/17 14:36:14;;;;;;;46.53;19.43;;;18.90;99.70;;;;;;5071091;28;20890;-66
2021/09/17 14:38:43;;;;;;;44.77;17.73;;;18.90;99.70;;;;;;5070234;28;20559;-64
2021/09/17 14:41:11;;;;;;;45.37;15.53;;;19.00;99.70;;;;;;5070786;28;20822;-65
2021/09/17 14:43:38;;;;;;;49.90;20.70;;;19.20;99.70;;;;;;5070615;28;20449;-64
2021/09/17 14:46:05;;;;;;;46.70;16.67;;;19.30;99.70;;;;;;5070740;28;20453;-64
2021/09/17 14:48:32;;;;;;;46.20;17.90;;;19.30;99.70;;;;;;5069442;28;20454;-64
2021/09/17 14:50:59;;;;;;;47.47;20.10;;;19.20;99.70;;;;;;5070246;28;21023;-65
2021/09/17 14:53:26;;;;;;;48.93;19.93;;;19.10;99.70;;;;;;5070525;28;20485;-65
2021/09/17 14:55:54;;;;;;;50.70;25.47;;;19.10;99.70;;;;;;5070439;28;20459;-64
2021/09/17 14:58:21;;;;;;;49.20;19.37;;;19.20;99.70;;;;;;5070535;28;20447;-64
2021/09/17 15:00:48;;;;;;;47.93;22.43;;;19.20;99.70;;;;;;5070034;28;20458;-65
2021/09/17 15:03:15;;;;;;;50.33;20.87;;;19.10;99.70;;;;;;5070634;28;20443;-65
2021/09/17 15:05:42;;;;;;;49.57;22.60;;;19.10;99.70;;;;;;5070080;28;20557;-64
2021/09/17 15:08:09;;;;;;;45.93;18.17;;;19.00;99.70;;;;;;5070386;28;20549;-65
2021/09/17 15:10:36;;;;;;;52.27;26.07;;;19.00;99.70;;;;;;5069781;28;20459;-64
2021/09/17 15:13:05;;;;;;;51.77;26.40;;;19.10;99.70;;;;;;5070023;28;20478;-65
2021/09/17 15:15:32;;;;;;;51.33;29.37;;;18.80;99.70;;;;;;5070290;28;20450;-66
2021/09/17 15:17:59;;;;;;;52.60;24.50;;;18.80;99.70;;;;;;5069156;28;20431;-65
2021/09/17 15:20:26;;;;;;;49.83;22.83;;;18.80;99.70;;;;;;5069336;28;20462;-65
2021/09/17 15:22:53;;;;;;;49.00;23.33;;;18.80;99.70;;;;;;5070066;28;20441;-65
2021/09/17 15:25:20;;;;;;;49.53;21.97;;;18.80;99.70;;;;;;5069404;28;20447;-65
2021/09/17 15:27:48;;;;;;;48.27;20.80;;;18.70;99.70;;;;;;5069855;28;20454;-64
2021/09/17 15:30:17;;;;;;;51.00;22.83;;;18.60;99.70;;;;;;5069645;28;20463;-65
2021/09/17 15:32:43;;;;;;;49.33;20.30;;;18.50;99.70;;;;;;5069558;28;20490;-66
2021/09/17 15:35:11;;;;;;;55.00;21.20;;;18.50;99.70;;;;;;5069059;28;20454;-65
2021/09/17 15:37:38;;;;;;;49.80;25.30;;;18.40;99.70;;;;;;5069426;28;20467;-65
2021/09/17 15:40:06;;;;;;;51.53;25.60;;;18.40;99.70;;;;;;5069348;28;20953;-65
2021/09/17 15:42:32;;;;;;;53.37;27.20;;;18.20;99.70;;;;;;5069433;28;20439;-65
2021/09/17 15:45:03;;;;;;;49.90;21.87;;;18.20;99.70;;;;;;5069727;28;20454;-62
2021/09/17 15:47:31;;;;;;;53.23;24.43;;;18.20;99.70;;;;;;5069583;28;20534;-65
2021/09/17 15:49:58;;;;;;;50.37;22.13;;;18.20;99.70;;;;;;5068682;28;20454;-65
2021/09/17 15:52:25;;;;;;;49.40;21.33;;;18.20;99.70;;;;;;5069620;28;20836;-65
2021/09/17 15:54:52;;;;;;;48.80;20.07;;;18.20;99.70;;;;;;5069408;28;20948;-65
2021/09/17 15:57:19;;;;;;;47.00;17.73;;;18.20;99.70;;;;;;5068855;28;20470;-65
2021/09/17 15:59:45;;;;;;;49.30;19.50;;;18.20;99.70;;;;;;5068534;28;20438;-66
2021/09/17 16:02:12;;;;;;;51.63;19.20;;;18.20;99.70;;;;;;5066331;28;20609;-66
2021/09/17 16:04:40;;;;;;;46.80;16.53;;;18.10;99.70;;;;;;5068579;28;20811;-65
2021/09/17 16:07:07;;;;;;;44.90;14.57;;;18.00;99.70;;;;;;5066474;28;20462;-65
2021/09/17 16:09:34;;;;;;;48.53;15.93;;;17.90;99.70;;;;;;5067974;28;20439;-64
2021/09/17 16:12:01;;;;;;;49.53;16.03;;;17.80;99.70;;;;;;5068076;28;20466;-65
2021/09/17 16:14:28;;;;;;;46.00;12.63;;;17.70;99.70;;;;;;5068086;28;21067;-64
2021/09/17 16:16:55;;;;;;;44.67;12.00;;;17.50;99.70;;;;;;5067253;28;20999;-65
2021/09/17 16:19:21;;;;;;;47.73;12.53;;;17.50;99.70;;;;;;5067864;28;20446;-65
2021/09/17 16:21:50;;;;;;;49.70;17.50;;;17.40;99.70;;;;;;5067875;28;20896;-65
2021/09/17 16:24:17;;;;;;;47.87;14.50;;;17.40;99.70;;;;;;5070485;28;20857;-65
2021/09/17 16:26:44;;;;;;;45.67;13.07;;;17.30;99.70;;;;;;5072141;28;20797;-64
2021/09/17 16:29:11;;;;;;;46.90;13.87;;;17.30;99.70;;;;;;5071510;28;20450;-65
2021/09/17 16:31:38;;;;;;;52.20;14.60;;;17.30;99.70;;;;;;5071900;28;20467;-64
2021/09/17 16:34:06;;;;;;;47.53;9.40;;;17.30;99.70;;;;;;5069618;28;20877;-64